Gresham, Oregon
Current Conditions -  °F | °C
As of 5:53 AM on Friday 28 Nov 2014 (Local Time) from KTTD Reporting Station
Light Rain Light Rain  
Wind Chill: 54°   Ceiling: 1700
Heat Index: 54°   Visibility: 10mi
Dew Point: 50°   Wind: 0mph
Humidity: 86%   Direction: NA
Pressure: 29.67"   Gusts: NA
Location:  45.51°N, 122.43°W
Report Text: KTTD 281353Z AUTO 00000KT 10SM -RA BKN017 OVC023 12/10 A2967 RMK AO2 SLP047 P0002 T01220100
Loading
Personal Weather Stations






























Interactive Weather Map New forecast layout! Learn more

10-Day Weather Forecast

Advertisements
Track Severe Weather on mobile